createdAt,value
2017-08-10T00:00:59.987Z,10.43
2017-08-10T00:03:27.232Z,10.57
2017-08-10T00:05:54.466Z,10.80
2017-08-10T00:08:21.697Z,12.60
2017-08-10T00:10:48.928Z,13.70
2017-08-10T00:13:16.157Z,11.97
2017-08-10T00:15:43.398Z,14.73
2017-08-10T00:18:10.624Z,13.33
2017-08-10T00:20:37.851Z,15.83
2017-08-10T00:23:07.032Z,16.33
2017-08-10T00:25:34.255Z,15.60
2017-08-10T00:28:03.437Z,16.30
2017-08-10T00:30:30.664Z,15.23
2017-08-10T00:32:57.898Z,14.13
2017-08-10T00:35:25.129Z,14.20
2017-08-10T00:37:52.352Z,15.07
2017-08-10T00:40:19.582Z,14.17
2017-08-10T00:42:46.829Z,15.23
2017-08-10T00:45:14.056Z,14.13
2017-08-10T00:47:41.292Z,16.37
2017-08-10T00:50:08.524Z,15.67
2017-08-10T00:52:35.749Z,15.00
2017-08-10T00:55:02.988Z,15.13
2017-08-10T00:57:30.221Z,14.70
2017-08-10T01:00:00.977Z,15.13
2017-08-10T01:02:28.190Z,15.90
2017-08-10T01:04:55.422Z,17.93
2017-08-10T01:07:22.652Z,15.57
2017-08-10T01:09:49.885Z,14.87
2017-08-10T01:12:17.144Z,15.73
2017-08-10T01:14:44.374Z,16.80
2017-08-10T01:17:11.616Z,15.20
2017-08-10T01:19:38.836Z,15.50
2017-08-10T01:22:06.059Z,14.97
2017-08-10T01:24:33.287Z,15.27
2017-08-10T01:27:00.522Z,14.67
2017-08-10T01:29:27.748Z,14.87
2017-08-10T01:31:54.975Z,15.27
2017-08-10T01:34:22.205Z,14.97
2017-08-10T01:36:49.437Z,15.40
2017-08-10T01:39:18.609Z,16.80
2017-08-10T01:41:45.837Z,17.77
2017-08-10T01:44:13.066Z,16.73
2017-08-10T01:46:40.300Z,15.73
2017-08-10T01:49:07.529Z,17.67
2017-08-10T01:51:34.759Z,15.97
2017-08-10T01:54:02.001Z,15.97
2017-08-10T01:56:29.244Z,16.27
2017-08-10T01:58:56.488Z,15.30
2017-08-10T02:01:23.713Z,14.70
2017-08-10T02:03:50.940Z,13.83
2017-08-10T02:06:18.168Z,15.37
2017-08-10T02:08:45.397Z,15.23
2017-08-10T02:11:14.582Z,13.97
2017-08-10T02:13:41.807Z,15.57
2017-08-10T02:16:09.034Z,14.60
2017-08-10T02:18:36.272Z,14.83
2017-08-10T02:21:03.505Z,15.20
2017-08-10T02:23:30.745Z,14.57
2017-08-10T02:25:57.994Z,14.17
2017-08-10T02:28:25.260Z,14.37
2017-08-10T02:30:55.084Z,15.47
2017-08-10T02:33:22.323Z,14.90
2017-08-10T02:35:49.560Z,15.07
2017-08-10T02:38:16.790Z,13.37
2017-08-10T02:40:44.020Z,15.33
2017-08-10T02:43:11.256Z,14.00
2017-08-10T02:45:38.490Z,15.43
2017-08-10T02:48:05.722Z,15.93
2017-08-10T02:50:32.948Z,16.20
2017-08-10T02:53:02.146Z,15.77
2017-08-10T02:55:29.380Z,17.30
2017-08-10T02:57:56.614Z,14.40
2017-08-10T03:00:23.854Z,14.70
2017-08-10T03:02:51.086Z,15.83
2017-08-10T03:05:18.320Z,15.50
2017-08-10T03:07:46.536Z,14.97
2017-08-10T03:10:13.762Z,15.63
2017-08-10T03:12:41.007Z,14.40
2017-08-10T03:15:08.253Z,17.37
2017-08-10T03:17:35.487Z,16.63
2017-08-10T03:20:02.753Z,16.40
2017-08-10T03:22:29.985Z,15.93
2017-08-10T03:24:57.216Z,15.13
2017-08-10T03:27:26.386Z,13.83
2017-08-10T03:29:53.612Z,12.80
2017-08-10T03:32:20.842Z,11.90
2017-08-10T03:34:50.042Z,13.70
2017-08-10T03:37:17.268Z,12.23
2017-08-10T03:39:44.780Z,13.02
2017-08-10T03:42:12.297Z,13.27
2017-08-10T03:44:41.508Z,12.53
2017-08-10T03:47:08.737Z,12.63
2017-08-10T03:49:35.968Z,12.90
2017-08-10T03:52:03.192Z,12.50
2017-08-10T03:54:30.428Z,11.20
2017-08-10T03:56:57.653Z,12.53
2017-08-10T03:59:24.889Z,11.90
2017-08-10T04:01:52.112Z,11.83
2017-08-10T04:04:19.349Z,12.33
2017-08-10T04:06:48.531Z,11.27
2017-08-10T04:09:15.761Z,11.57
2017-08-10T04:11:42.992Z,11.80
2017-08-10T04:14:10.217Z,10.50
2017-08-10T04:16:37.444Z,12.50
2017-08-10T04:19:04.668Z,9.30
2017-08-10T04:21:33.849Z,11.00
2017-08-10T04:24:01.081Z,8.50
2017-08-10T04:26:28.309Z,9.57
2017-08-10T04:28:55.532Z,8.30
2017-08-10T04:31:22.752Z,8.00
2017-08-10T04:33:49.977Z,8.03
2017-08-10T04:36:17.202Z,8.57
2017-08-10T04:38:44.441Z,9.00
2017-08-10T04:41:11.665Z,9.47
2017-08-10T04:43:38.890Z,8.60
2017-08-10T04:46:06.112Z,9.10
2017-08-10T04:48:33.336Z,9.67
2017-08-10T04:51:00.564Z,9.73
2017-08-10T04:53:27.792Z,10.00
2017-08-10T04:55:55.041Z,9.80
2017-08-10T04:58:22.256Z,8.23
2017-08-10T05:00:51.415Z,8.67
2017-08-10T05:03:18.650Z,10.43
2017-08-10T05:05:45.869Z,9.10
2017-08-10T05:08:13.126Z,11.57
2017-08-10T05:10:40.361Z,10.07
2017-08-10T05:13:09.528Z,10.10
2017-08-10T05:15:36.763Z,10.20
2017-08-10T05:18:04.013Z,10.30
2017-08-10T05:20:31.234Z,9.97
2017-08-10T05:22:58.474Z,10.07
2017-08-10T05:25:25.710Z,10.50
2017-08-10T05:27:52.946Z,10.03
2017-08-10T05:30:20.185Z,9.00
2017-08-10T05:32:47.417Z,10.07
2017-08-10T05:35:14.641Z,10.20
2017-08-10T05:37:41.873Z,10.30
2017-08-10T05:40:09.105Z,10.50
2017-08-10T05:42:36.324Z,8.47
2017-08-10T05:45:03.549Z,9.13
2017-08-10T05:47:30.768Z,9.07
2017-08-10T05:49:57.981Z,8.43
2017-08-10T05:52:25.201Z,8.40
2017-08-10T05:54:52.427Z,9.00
2017-08-10T05:57:19.645Z,7.70
2017-08-10T05:59:46.865Z,8.77
2017-08-10T06:02:14.093Z,8.47
2017-08-10T06:04:41.320Z,8.27
2017-08-10T06:07:08.541Z,8.07
2017-08-10T06:09:35.755Z,8.10
2017-08-10T06:12:02.982Z,7.93
2017-08-10T06:14:30.212Z,7.90
2017-08-10T06:16:57.433Z,7.80
2017-08-10T06:19:24.656Z,8.00
2017-08-10T06:21:51.884Z,7.70
2017-08-10T06:24:19.105Z,8.60
2017-08-10T06:26:46.333Z,11.10
2017-08-10T06:29:13.566Z,9.40
2017-08-10T06:31:40.796Z,8.90
2017-08-10T06:34:08.016Z,9.47
2017-08-10T06:36:37.208Z,9.63
2017-08-10T06:39:04.168Z,8.30
2017-08-10T06:41:31.400Z,10.40
2017-08-10T06:44:00.556Z,8.30
2017-08-10T06:46:27.796Z,9.37
2017-08-10T06:48:55.026Z,10.07
2017-08-10T06:51:22.254Z,11.40
2017-08-10T06:53:49.491Z,10.90
2017-08-10T06:56:16.738Z,11.30
2017-08-10T06:58:43.969Z,11.00
2017-08-10T07:01:11.223Z,10.50
2017-08-10T07:03:39.115Z,9.23
2017-08-10T07:06:06.341Z,9.63
2017-08-10T07:08:35.507Z,9.70
2017-08-10T07:11:02.732Z,10.20
2017-08-10T07:13:29.957Z,9.97
2017-08-10T07:15:57.194Z,8.80
2017-08-10T07:18:24.424Z,9.23
2017-08-10T07:20:51.657Z,9.97
2017-08-10T07:23:18.890Z,9.40
2017-08-10T07:25:46.117Z,8.80
2017-08-10T07:28:13.348Z,9.40
2017-08-10T07:30:40.571Z,9.93
2017-08-10T07:33:07.793Z,9.63
2017-08-10T07:35:35.017Z,9.03
2017-08-10T07:38:02.245Z,9.13
2017-08-10T07:40:29.464Z,9.63
2017-08-10T07:42:56.694Z,8.50
2017-08-10T07:45:23.911Z,6.83
2017-08-10T07:47:53.076Z,8.30
2017-08-10T07:50:20.301Z,7.70
2017-08-10T07:52:47.523Z,7.33
2017-08-10T07:55:14.749Z,7.77
2017-08-10T07:57:43.908Z,7.90
2017-08-10T08:00:11.129Z,7.90
2017-08-10T08:02:38.350Z,7.60
2017-08-10T08:05:05.570Z,6.87
2017-08-10T08:07:32.793Z,6.97
2017-08-10T08:10:00.017Z,6.77
2017-08-10T08:12:27.236Z,7.00
2017-08-10T08:14:56.389Z,6.93
2017-08-10T08:17:23.619Z,8.13
2017-08-10T08:19:50.840Z,8.03
2017-08-10T08:22:18.076Z,8.37
2017-08-10T08:24:45.305Z,7.63
2017-08-10T08:27:12.537Z,8.20
2017-08-10T08:29:39.765Z,8.50
2017-08-10T08:32:08.929Z,8.07
2017-08-10T08:34:36.152Z,9.07
2017-08-10T08:37:03.374Z,8.77
2017-08-10T08:39:30.604Z,8.90
2017-08-10T08:41:57.824Z,8.40
2017-08-10T08:44:25.049Z,7.17
2017-08-10T08:46:52.281Z,7.70
2017-08-10T08:49:19.492Z,7.00
2017-08-10T08:51:46.713Z,7.00
2017-08-10T08:54:13.963Z,7.63
2017-08-10T08:56:41.233Z,7.83
2017-08-10T08:59:08.454Z,7.07
2017-08-10T09:01:35.669Z,6.87
2017-08-10T09:04:02.902Z,6.87
2017-08-10T09:06:30.130Z,6.83
2017-08-10T09:08:57.348Z,7.50
2017-08-10T09:11:24.578Z,7.73
2017-08-10T09:13:51.805Z,7.83
2017-08-10T09:16:19.033Z,7.90
2017-08-10T09:18:46.254Z,7.90
2017-08-10T09:21:13.469Z,7.73
2017-08-10T09:23:40.694Z,8.83
2017-08-10T09:26:07.920Z,8.90
2017-08-10T09:28:37.096Z,9.27
2017-08-10T09:31:04.326Z,8.77
2017-08-10T09:33:31.547Z,8.43
2017-08-10T09:36:00.745Z,9.10
2017-08-10T09:38:27.971Z,7.80
2017-08-10T09:40:55.184Z,8.30
2017-08-10T09:43:22.405Z,8.07
2017-08-10T09:45:49.625Z,8.20
2017-08-10T09:48:16.848Z,7.10
2017-08-10T09:50:46.021Z,7.70
2017-08-10T09:53:13.241Z,7.30
2017-08-10T09:55:40.465Z,7.60
2017-08-10T09:58:07.684Z,7.67
2017-08-10T10:00:34.904Z,7.57
2017-08-10T10:03:04.096Z,6.70
2017-08-10T10:05:31.321Z,6.87
2017-08-10T10:07:58.550Z,7.50
2017-08-10T10:10:27.704Z,7.07
2017-08-10T10:12:54.928Z,6.60
2017-08-10T10:15:22.144Z,7.63
2017-08-10T10:17:49.357Z,8.40
2017-08-10T10:20:16.584Z,8.93
2017-08-10T10:22:43.809Z,9.47
2017-08-10T10:25:11.040Z,8.00
2017-08-10T10:27:38.260Z,8.13
2017-08-10T10:30:05.481Z,7.17
2017-08-10T10:32:34.661Z,7.37
2017-08-10T10:35:01.905Z,6.50
2017-08-10T10:37:29.138Z,7.30
2017-08-10T10:39:56.365Z,8.57
2017-08-10T10:42:23.594Z,8.43
2017-08-10T10:44:50.821Z,8.97
2017-08-10T10:47:20.012Z,8.50
2017-08-10T10:49:47.239Z,8.60
2017-08-10T10:52:14.462Z,9.00
2017-08-10T10:54:41.700Z,7.53
2017-08-10T10:57:08.925Z,9.20
2017-08-10T10:59:36.148Z,9.00
2017-08-10T11:02:03.366Z,8.00
2017-08-10T11:04:30.601Z,8.63
2017-08-10T11:06:57.820Z,8.80
2017-08-10T11:09:27.022Z,8.47
2017-08-10T11:11:54.260Z,7.70
2017-08-10T11:14:21.481Z,7.13
2017-08-10T11:16:48.699Z,8.50
2017-08-10T11:19:15.916Z,7.63
2017-08-10T11:21:43.134Z,8.10
2017-08-10T11:24:10.360Z,8.50
2017-08-10T11:26:37.596Z,8.67
2017-08-10T11:29:04.830Z,9.10
2017-08-10T11:31:32.049Z,8.20
2017-08-10T11:33:59.272Z,8.20
2017-08-10T11:36:26.504Z,9.20
2017-08-10T11:38:53.733Z,8.13
2017-08-10T11:41:20.960Z,9.97
2017-08-10T11:43:48.942Z,10.00
2017-08-10T11:46:16.175Z,10.07
2017-08-10T11:48:43.400Z,10.67
2017-08-10T11:51:10.630Z,11.37
2017-08-10T11:53:37.856Z,12.17
2017-08-10T11:56:05.085Z,12.47
2017-08-10T11:58:32.324Z,12.60
2017-08-10T12:00:59.556Z,11.17
2017-08-10T12:03:26.780Z,11.70
2017-08-10T12:05:54.012Z,12.30
2017-08-10T12:08:21.240Z,13.10
2017-08-10T12:10:48.469Z,13.03
2017-08-10T12:13:15.701Z,11.50
2017-08-10T12:15:42.944Z,12.30
2017-08-10T12:18:10.173Z,12.10
2017-08-10T12:20:37.401Z,12.30
2017-08-10T12:23:04.636Z,13.10
2017-08-10T12:25:31.864Z,12.40
2017-08-10T12:28:01.033Z,12.73
2017-08-10T12:30:28.261Z,13.00
2017-08-10T12:32:55.488Z,15.13
2017-08-10T12:35:22.741Z,14.73
2017-08-10T12:37:49.968Z,15.30
2017-08-10T12:40:17.193Z,12.50
2017-08-10T12:42:44.416Z,13.20
2017-08-10T12:45:13.572Z,14.30
2017-08-10T12:47:40.801Z,14.60
2017-08-10T12:50:08.028Z,13.80
2017-08-10T12:52:35.256Z,13.40
2017-08-10T12:55:02.481Z,14.80
2017-08-10T12:57:29.709Z,13.87
2017-08-10T12:59:56.940Z,14.70
2017-08-10T13:02:24.180Z,16.30
2017-08-10T13:04:51.408Z,16.93
2017-08-10T13:07:18.641Z,16.23
2017-08-10T13:09:45.868Z,16.50
2017-08-10T13:12:13.097Z,16.30
2017-08-10T13:14:40.328Z,16.37
2017-08-10T13:17:07.564Z,15.00
2017-08-10T13:19:34.796Z,15.90
2017-08-10T13:22:02.033Z,16.40
2017-08-10T13:24:29.262Z,16.33
2017-08-10T13:26:56.488Z,16.70
2017-08-10T13:29:23.720Z,15.60
2017-08-10T13:31:50.948Z,16.53
2017-08-10T13:34:18.176Z,17.20
2017-08-10T13:36:45.402Z,17.23
2017-08-10T13:39:12.654Z,15.20
2017-08-10T13:41:39.892Z,17.63
2017-08-10T13:44:07.127Z,16.00
2017-08-10T13:46:34.360Z,16.53
2017-08-10T13:49:01.592Z,17.90
2017-08-10T13:51:28.832Z,18.33
2017-08-10T13:53:56.062Z,17.13
2017-08-10T13:56:23.288Z,16.53
2017-08-10T13:58:52.460Z,16.10
2017-08-10T14:01:20.944Z,14.90
2017-08-10T14:03:48.183Z,16.27
2017-08-10T14:06:15.410Z,16.03
2017-08-10T14:08:44.572Z,16.47
2017-08-10T14:11:11.801Z,15.27
2017-08-10T14:13:39.032Z,14.47
2017-08-10T14:16:06.261Z,14.83
2017-08-10T14:18:35.449Z,16.20
2017-08-10T14:21:02.676Z,15.63
2017-08-10T14:23:29.900Z,12.13
2017-08-10T14:25:59.075Z,10.70
2017-08-10T14:28:26.295Z,12.60
2017-08-10T14:30:53.521Z,13.50
2017-08-10T14:33:20.742Z,3.40
2017-08-10T14:35:48.253Z,2.20
2017-08-10T14:38:15.749Z,1.67
2017-08-10T14:40:43.248Z,0.90
2017-08-10T14:43:10.745Z,0.75
2017-08-10T14:45:38.245Z,0.70
2017-08-10T14:48:05.752Z,0.65
2017-08-10T14:50:33.256Z,0.60
2017-08-10T14:53:00.766Z,0.62
2017-08-10T14:55:28.268Z,0.50
2017-08-10T14:57:55.764Z,0.60
2017-08-10T15:00:23.261Z,0.50
2017-08-10T15:02:50.760Z,0.60
2017-08-10T15:05:18.260Z,0.50
2017-08-10T15:07:45.752Z,0.50
2017-08-10T15:10:15.229Z,0.50
2017-08-10T15:12:43.708Z,0.50
2017-08-10T15:15:12.214Z,0.50
2017-08-10T15:17:39.717Z,0.50
2017-08-10T15:20:07.216Z,0.50
2017-08-10T15:22:34.714Z,0.60
2017-08-10T15:25:02.215Z,0.70
2017-08-10T15:27:29.718Z,0.60
2017-08-10T15:29:57.228Z,0.57
2017-08-10T15:32:24.731Z,0.60
2017-08-10T15:34:52.232Z,0.60
2017-08-10T15:37:20.737Z,0.60
2017-08-10T15:39:48.237Z,0.80
2017-08-10T15:42:15.729Z,0.68
2017-08-10T15:44:43.229Z,0.60
2017-08-10T15:47:10.720Z,0.60
2017-08-10T15:49:38.226Z,0.80
2017-08-10T15:52:05.718Z,0.70
2017-08-10T15:54:33.208Z,0.73
2017-08-10T15:57:00.700Z,0.82
2017-08-10T15:59:28.195Z,1.40
2017-08-10T16:01:55.694Z,1.10
2017-08-10T16:04:23.250Z,0.95
2017-08-10T16:06:50.744Z,0.80
2017-08-10T16:09:18.245Z,0.80
2017-08-10T16:11:45.753Z,0.90
2017-08-10T16:14:13.269Z,0.90
2017-08-10T16:16:40.768Z,1.10
2017-08-10T16:19:08.268Z,1.02
2017-08-10T16:21:35.773Z,0.80
2017-08-10T16:24:03.281Z,1.08
2017-08-10T16:26:30.789Z,1.27
2017-08-10T16:28:58.296Z,1.05
2017-08-10T16:31:26.807Z,1.05
2017-08-10T16:33:55.327Z,1.12
2017-08-10T16:36:22.828Z,1.15
2017-08-10T16:38:51.330Z,2.35
2017-08-10T16:41:18.827Z,1.15
2017-08-10T16:43:46.329Z,0.98
2017-08-10T16:46:13.832Z,1.27
2017-08-10T16:48:41.324Z,1.50
2017-08-10T16:51:08.830Z,1.30
2017-08-10T16:53:36.348Z,1.15
2017-08-10T16:56:03.857Z,1.35
2017-08-10T16:58:31.357Z,1.00
2017-08-10T17:00:58.861Z,1.05
2017-08-10T17:03:26.364Z,1.00
2017-08-10T17:05:53.865Z,1.48
2017-08-10T17:08:21.370Z,1.25
2017-08-10T17:10:48.877Z,1.40
2017-08-10T17:13:16.380Z,1.27
2017-08-10T17:15:43.888Z,1.37
2017-08-10T17:18:11.403Z,0.90
2017-08-10T17:20:38.901Z,0.82
2017-08-10T17:23:06.422Z,0.80
2017-08-10T17:25:33.925Z,1.00
2017-08-10T17:28:01.425Z,1.10
2017-08-10T17:30:28.965Z,1.00
2017-08-10T17:32:56.473Z,0.80
2017-08-10T17:35:23.981Z,0.70
2017-08-10T17:37:51.477Z,1.30
2017-08-10T17:40:18.977Z,0.80
2017-08-10T17:42:46.473Z,0.90
2017-08-10T17:45:14.980Z,1.10
2017-08-10T17:47:43.501Z,1.15
2017-08-10T17:50:12.028Z,1.20
2017-08-10T17:52:40.526Z,2.10
2017-08-10T17:55:08.028Z,1.27
2017-08-10T17:57:35.526Z,0.80
2017-08-10T18:00:03.033Z,1.02
2017-08-10T18:02:30.538Z,1.02
2017-08-10T18:04:58.181Z,1.00
2017-08-10T18:07:25.825Z,1.10
2017-08-10T18:09:53.153Z,0.80
2017-08-10T18:12:20.660Z,0.90
2017-08-10T18:14:48.152Z,1.00
2017-08-10T18:17:15.664Z,0.85
2017-08-10T18:19:43.169Z,1.15
2017-08-10T18:22:10.669Z,1.20
2017-08-10T18:24:38.184Z,8.95
2017-08-10T18:27:05.689Z,4.20
2017-08-10T18:29:34.180Z,2.10
2017-08-10T18:32:01.672Z,1.40
2017-08-10T18:34:29.172Z,1.15
2017-08-10T18:36:56.677Z,1.10
2017-08-10T18:39:24.187Z,2.62
2017-08-10T18:41:51.706Z,2.58
2017-08-10T18:44:19.204Z,1.77
2017-08-10T18:46:48.214Z,1.30
2017-08-10T18:49:15.713Z,1.20
2017-08-10T18:51:43.212Z,1.60
2017-08-10T18:54:10.717Z,1.02
2017-08-10T18:56:38.213Z,0.90
2017-08-10T18:59:06.705Z,1.10
2017-08-10T19:01:34.205Z,0.93
2017-08-10T19:04:01.708Z,1.10
2017-08-10T19:06:29.222Z,1.05
2017-08-10T19:08:56.729Z,1.02
2017-08-10T19:11:24.224Z,1.40
2017-08-10T19:13:51.726Z,1.20
2017-08-10T19:16:19.241Z,1.10
2017-08-10T19:18:46.752Z,1.17
2017-08-10T19:21:14.265Z,1.17
2017-08-10T19:23:41.781Z,1.08
2017-08-10T19:26:09.299Z,1.40
2017-08-10T19:28:36.796Z,1.00
2017-08-10T19:31:04.301Z,1.12
2017-08-10T19:33:31.800Z,0.98
2017-08-10T19:35:59.301Z,1.25
2017-08-10T19:38:26.808Z,3.25
2017-08-10T19:40:54.308Z,1.30
2017-08-10T19:43:22.633Z,1.60
2017-08-10T19:45:50.134Z,1.00
2017-08-10T19:48:17.640Z,1.20
2017-08-10T19:50:45.461Z,1.67
2017-08-10T19:53:12.965Z,0.90
2017-08-10T19:55:40.466Z,1.20
2017-08-10T19:58:07.969Z,0.98
2017-08-10T20:00:35.461Z,0.88
2017-08-10T20:03:02.973Z,1.05
2017-08-10T20:05:30.492Z,0.88
2017-08-10T20:07:57.981Z,0.80
2017-08-10T20:10:25.470Z,0.90
2017-08-10T20:12:52.960Z,0.90
2017-08-10T20:15:20.468Z,0.85
2017-08-10T20:17:47.982Z,0.88
2017-08-10T20:20:15.485Z,1.33
2017-08-10T20:22:42.988Z,0.80
2017-08-10T20:25:10.479Z,0.90
2017-08-10T20:27:37.972Z,0.88
2017-08-10T20:30:05.470Z,0.85
2017-08-10T20:32:32.967Z,1.35
2017-08-10T20:35:00.461Z,1.00
2017-08-10T20:37:27.962Z,1.20
2017-08-10T20:39:55.456Z,1.30
2017-08-10T20:42:22.969Z,1.10
2017-08-10T20:44:50.474Z,0.90
2017-08-10T20:47:17.977Z,0.93
2017-08-10T20:49:45.480Z,1.00
2017-08-10T20:52:12.990Z,1.30
2017-08-10T20:54:40.503Z,1.00
2017-08-10T20:57:07.997Z,1.40
2017-08-10T20:59:35.497Z,1.20
2017-08-10T21:02:02.993Z,0.90
2017-08-10T21:04:30.485Z,1.00
2017-08-10T21:06:58.980Z,0.77
2017-08-10T21:09:26.474Z,0.68
2017-08-10T21:11:53.973Z,0.90
2017-08-10T21:14:21.465Z,0.80
2017-08-10T21:16:48.956Z,0.90
2017-08-10T21:19:16.460Z,0.80
2017-08-10T21:21:43.964Z,0.80
2017-08-10T21:24:11.461Z,0.93
2017-08-10T21:26:38.949Z,0.70
2017-08-10T21:29:06.474Z,0.70
2017-08-10T21:31:33.964Z,0.90
2017-08-10T21:34:01.457Z,0.70
2017-08-10T21:36:28.957Z,0.77
2017-08-10T21:38:56.452Z,0.93
2017-08-10T21:41:23.949Z,0.77
2017-08-10T21:43:51.449Z,0.70
2017-08-10T21:46:18.949Z,0.80
2017-08-10T21:48:46.442Z,0.80
2017-08-10T21:51:13.932Z,0.77
2017-08-10T21:53:41.441Z,0.70
2017-08-10T21:56:08.939Z,0.90
2017-08-10T21:58:36.266Z,0.98
2017-08-10T22:01:03.772Z,0.88
2017-08-10T22:03:31.274Z,1.08
2017-08-10T22:05:58.784Z,0.93
2017-08-10T22:08:26.280Z,0.70
2017-08-10T22:10:53.780Z,1.12
2017-08-10T22:13:21.278Z,0.82
2017-08-10T22:15:48.782Z,0.90
2017-08-10T22:18:16.281Z,1.08
2017-08-10T22:20:43.780Z,0.90
2017-08-10T22:23:11.277Z,0.98
2017-08-10T22:25:38.773Z,0.80
2017-08-10T22:28:07.268Z,1.02
2017-08-10T22:30:36.735Z,0.98
2017-08-10T22:33:04.245Z,1.00
2017-08-10T22:35:31.746Z,0.80
2017-08-10T22:37:59.257Z,1.00
2017-08-10T22:40:26.767Z,0.90
2017-08-10T22:42:54.284Z,1.00
2017-08-10T22:45:21.784Z,0.82
2017-08-10T22:47:49.285Z,1.15
2017-08-10T22:50:16.782Z,1.30
2017-08-10T22:52:44.268Z,0.80
2017-08-10T22:55:11.768Z,1.20
2017-08-10T22:57:39.261Z,1.17
2017-08-10T23:00:06.757Z,1.12
2017-08-10T23:02:34.253Z,1.20
2017-08-10T23:05:01.753Z,1.02
2017-08-10T23:07:29.244Z,1.30
2017-08-10T23:09:56.743Z,1.30
2017-08-10T23:12:24.252Z,1.30
2017-08-10T23:14:51.758Z,1.45
2017-08-10T23:17:19.268Z,1.42
2017-08-10T23:19:46.792Z,1.20
2017-08-10T23:22:14.302Z,1.20
2017-08-10T23:24:41.808Z,1.23
2017-08-10T23:27:09.319Z,1.45
2017-08-10T23:29:36.825Z,1.62
2017-08-10T23:32:04.343Z,1.62
2017-08-10T23:34:31.849Z,1.20
2017-08-10T23:36:59.345Z,1.15
2017-08-10T23:39:26.849Z,1.10
2017-08-10T23:41:54.347Z,1.55
2017-08-10T23:44:21.844Z,1.80
2017-08-10T23:46:49.345Z,1.30
2017-08-10T23:49:16.840Z,1.77
2017-08-10T23:51:44.341Z,1.75
2017-08-10T23:54:11.860Z,2.20
2017-08-10T23:56:39.364Z,1.95
2017-08-10T23:59:07.868Z,1.70
